Time;durP1;ratioP1;P1;durP2;ratioP2;P2;SDS_P1;SDS_P2;PMS_P1;PMS_P2;Temp;Humidity;BMP_temperature;BMP_pressure;BME280_temperature;BME280_humidity;BME280_pressure;Samples;Min_cycle;Max_cycle;Signal;HPM_P1;HPM_P2
2024/03/02 00:00:54;;;;;;;24.95;11.10;;;;;;;12.32;89.01;99409.97;6372090;27;20106;-70
2024/03/02 00:03:55;;;;;;;23.45;10.88;;;;;;;12.29;88.81;99410.19;6373361;27;20536;-71
2024/03/02 00:06:56;;;;;;;18.58;10.27;;;;;;;12.29;89.86;99403.19;6372329;27;20050;-70
2024/03/02 00:09:59;;;;;;;21.17;11.30;;;;;;;12.26;89.69;99402.59;6389132;27;20091;-70
2024/03/02 00:13:00;;;;;;;22.85;11.32;;;;;;;12.20;89.81;99400.47;6371351;27;20440;-70
2024/03/02 00:16:01;;;;;;;22.20;10.88;;;;;;;12.15;90.32;99400.81;6386032;27;20047;-70
2024/03/02 00:19:06;;;;;;;24.33;10.98;;;;;;;12.16;90.88;99394.63;6383994;27;20050;-71
2024/03/02 00:22:08;;;;;;;24.30;10.32;;;;;;;12.18;90.34;99403.19;6375164;27;20099;-70
2024/03/02 00:25:10;;;;;;;21.50;11.03;;;;;;;12.18;90.95;99402.38;6371521;27;20390;-70
2024/03/02 00:28:21;;;;;;;21.65;10.65;;;;;;;12.15;90.99;99407.81;6379583;27;20305;-75
2024/03/02 00:31:22;;;;;;;24.17;11.50;;;;;;;12.16;90.69;99412.94;6372099;27;20047;-75
2024/03/02 00:34:23;;;;;;;20.50;11.00;;;;;;;12.16;91.23;99409.50;6368444;27;20490;-75
2024/03/02 00:37:24;;;;;;;23.40;11.20;;;;;;;12.09;90.96;99414.38;6378973;27;20299;-75
2024/03/02 00:40:29;;;;;;;25.55;11.00;;;;;;;12.06;92.48;99409.38;6361384;27;20055;-75
2024/03/02 00:43:51;;;;;;;20.85;10.30;;;;;;;12.09;92.65;99396.91;6353732;28;20051;-75
2024/03/02 00:46:53;;;;;;;20.15;10.10;;;;;;;12.09;92.26;99396.06;6352911;27;20043;-75
2024/03/02 00:49:54;;;;;;;25.60;10.30;;;;;;;12.09;91.97;99386.44;6373923;27;20042;-69
2024/03/02 00:52:57;;;;;;;24.08;10.93;;;;;;;12.10;92.39;99398.53;6358626;27;20055;-70
2024/03/02 00:56:00;;;;;;;27.60;11.80;;;;;;;12.15;92.95;99398.22;6376932;27;20040;-69
2024/03/02 00:59:01;;;;;;;25.38;11.93;;;;;;;12.13;92.63;99400.13;6375155;27;20073;-70
2024/03/02 01:02:02;;;;;;;27.05;11.73;;;;;;;12.16;92.01;99404.25;6364301;27;20715;-70
2024/03/02 01:05:05;;;;;;;22.63;10.82;;;;;;;12.14;92.17;99404.38;6370283;27;20055;-69
2024/03/02 01:08:06;;;;;;;23.40;10.93;;;;;;;12.08;91.94;99392.59;6377365;27;20051;-69
2024/03/02 01:11:07;;;;;;;22.70;11.57;;;;;;;12.06;91.42;99394.50;6376303;27;20051;-75
2024/03/02 01:14:08;;;;;;;19.77;10.38;;;;;;;12.04;92.10;99393.78;6378974;27;20054;-70
2024/03/02 01:17:09;;;;;;;29.88;10.43;;;;;;;12.00;92.68;99386.31;6369521;27;20050;-70
2024/03/02 01:20:11;;;;;;;24.48;11.27;;;;;;;12.01;93.43;99390.59;6384599;27;20054;-70
2024/03/02 01:23:12;;;;;;;19.65;9.57;;;;;;;11.99;92.99;99395.13;6402787;27;20539;-70
2024/03/02 01:26:13;;;;;;;22.38;10.80;;;;;;;11.94;93.25;99392.84;6378223;27;20054;-70
2024/03/02 01:29:13;;;;;;;21.08;10.23;;;;;;;11.95;92.67;99393.69;6358671;27;20414;-70
2024/03/02 01:32:15;;;;;;;17.83;9.90;;;;;;;11.92;92.35;99389.50;6394441;27;20409;-70
2024/03/02 01:35:16;;;;;;;20.05;10.80;;;;;;;11.86;93.26;99380.34;6384229;27;20050;-70
2024/03/02 01:38:17;;;;;;;22.00;10.13;;;;;;;11.89;93.93;99387.16;6383610;27;20050;-70
2024/03/02 01:41:18;;;;;;;23.33;10.23;;;;;;;11.90;94.20;99388.78;6402497;27;20055;-70
2024/03/02 01:44:19;;;;;;;23.80;10.80;;;;;;;11.91;93.91;99385.25;6396567;27;20051;-70
2024/03/02 01:47:22;;;;;;;22.58;10.35;;;;;;;11.91;93.18;99387.88;6376672;27;20467;-70
2024/03/02 01:50:25;;;;;;;21.92;10.82;;;;;;;11.85;93.60;99389.13;6376485;27;20054;-70
2024/03/02 01:53:26;;;;;;;23.67;10.13;;;;;;;11.86;92.92;99396.03;6376784;27;20086;-70
2024/03/02 01:56:27;;;;;;;20.13;10.52;;;;;;;11.81;93.08;99387.69;6376501;27;20471;-70
2024/03/02 01:59:30;;;;;;;26.33;11.45;;;;;;;11.80;93.18;99385.22;6358356;27;20049;-70
2024/03/02 02:02:31;;;;;;;22.10;11.75;;;;;;;11.81;93.64;99399.94;6375771;27;20133;-71
2024/03/02 02:05:37;;;;;;;23.52;11.73;;;;;;;11.73;94.31;99390.06;6376386;27;20451;-70
2024/03/02 02:08:38;;;;;;;18.70;10.95;;;;;;;11.74;94.55;99375.25;6376058;27;20083;-69
2024/03/02 02:11:39;;;;;;;23.52;11.88;;;;;;;11.68;94.65;99361.69;6375684;27;20057;-70
2024/03/02 02:14:47;;;;;;;23.33;10.93;;;;;;;11.69;95.23;99367.72;6366572;27;20127;-75
2024/03/02 02:17:50;;;;;;;22.55;10.52;;;;;;;11.70;94.91;99372.03;6401573;27;20055;-75
2024/03/02 02:20:51;;;;;;;21.73;10.65;;;;;;;11.74;94.85;99380.47;6382846;27;20115;-75
2024/03/02 02:23:52;;;;;;;24.90;10.50;;;;;;;11.74;95.00;99376.06;6401390;27;20379;-75
2024/03/02 02:26:53;;;;;;;21.83;10.00;;;;;;;11.75;94.29;99371.66;6401333;27;20565;-70
2024/03/02 02:29:56;;;;;;;28.65;11.13;;;;;;;11.77;94.47;99372.38;6401201;27;20043;-70
2024/03/02 02:32:57;;;;;;;24.95;9.93;;;;;;;11.79;94.70;99386.16;6382840;27;20483;-70
2024/03/02 02:35:58;;;;;;;28.00;11.55;;;;;;;11.72;95.35;99396.25;6401174;27;20057;-70
2024/03/02 02:39:03;;;;;;;21.48;10.48;;;;;;;11.62;96.36;99408.34;6382380;27;20410;-70
2024/03/02 02:42:04;;;;;;;27.83;10.32;;;;;;;11.65;96.00;99400.28;6400963;27;20082;-75
2024/03/02 02:45:09;;;;;;;21.45;10.18;;;;;;;11.67;96.54;99401.84;6400775;27;20412;-75
2024/03/02 02:48:09;;;;;;;27.27;9.43;;;;;;;11.68;96.12;99405.28;6382359;27;20076;-75
2024/03/02 02:51:13;;;;;;;20.70;10.35;;;;;;;11.76;96.02;99415.16;6400569;27;20070;-75
2024/03/02 02:54:14;;;;;;;21.88;9.43;;;;;;;11.77;95.93;99403.75;6400800;27;20047;-75
2024/03/02 02:57:15;;;;;;;25.92;8.75;;;;;;;11.83;95.61;99406.72;6400491;27;20153;-75
2024/03/02 03:00:18;;;;;;;19.52;8.68;;;;;;;11.86;95.19;99416.94;6400731;27;20042;-75
2024/03/02 03:03:19;;;;;;;16.75;8.70;;;;;;;11.87;95.73;99410.75;6400516;27;20056;-75
2024/03/02 03:06:20;;;;;;;19.35;9.15;;;;;;;11.89;95.81;99413.28;6400773;27;20052;-75
2024/03/02 03:09:23;;;;;;;19.58;8.90;;;;;;;11.90;96.13;99407.09;6400295;27;20047;-75
2024/03/02 03:12:24;;;;;;;17.98;9.13;;;;;;;11.92;95.55;99410.44;6378020;27;20522;-75
2024/03/02 03:15:25;;;;;;;21.65;8.82;;;;;;;11.94;95.62;99397.25;6356292;27;20051;-74
2024/03/02 03:18:26;;;;;;;23.35;8.73;;;;;;;11.95;94.29;99380.63;6356085;27;20051;-74
2024/03/02 03:21:27;;;;;;;23.42;8.60;;;;;;;12.06;94.31;99384.03;6355953;27;20062;-75
2024/03/02 03:24:28;;;;;;;23.52;9.32;;;;;;;12.02;93.77;99382.63;6355868;27;20073;-75
2024/03/02 03:27:29;;;;;;;22.20;10.20;;;;;;;11.97;94.32;99382.16;6355990;27;20066;-75
2024/03/02 03:30:30;;;;;;;18.58;8.95;;;;;;;11.91;92.59;99382.63;6355371;27;20047;-70
2024/03/02 03:33:31;;;;;;;16.20;8.48;;;;;;;12.03;89.85;99388.72;6373744;27;20470;-70
2024/03/02 03:36:32;;;;;;;15.25;7.93;;;;;;;12.12;87.27;99390.59;6355824;27;20051;-70
2024/03/02 03:39:38;;;;;;;20.08;8.40;;;;;;;12.10;86.42;99388.09;6355399;27;20047;-70
2024/03/02 03:42:40;;;;;;;18.63;8.20;;;;;;;12.18;85.15;99387.50;6373840;27;20058;-70
2024/03/02 03:45:43;;;;;;;21.17;9.48;;;;;;;12.26;84.88;99392.97;6355510;27;20047;-70
2024/03/02 03:48:44;;;;;;;19.55;8.35;;;;;;;12.30;85.05;99398.78;6373581;27;20567;-69
2024/03/02 03:51:47;;;;;;;19.13;7.50;;;;;;;12.32;84.22;99409.97;6373477;27;20074;-74
2024/03/02 03:54:50;;;;;;;15.25;7.72;;;;;;;12.35;84.42;99404.47;6355486;27;20055;-74
2024/03/02 03:57:51;;;;;;;14.25;7.97;;;;;;;12.35;85.85;99401.84;6373485;27;20085;-74
2024/03/02 04:00:52;;;;;;;23.98;8.52;;;;;;;12.35;85.93;99404.47;6373576;27;20042;-76
2024/03/02 04:03:53;;;;;;;15.88;8.52;;;;;;;12.32;86.95;99404.72;6354946;27;20108;-74
2024/03/02 04:06:54;;;;;;;26.77;8.30;;;;;;;12.19;88.80;99399.63;6373516;27;20089;-75
2024/03/02 04:09:54;;;;;;;22.13;9.32;;;;;;;12.16;89.44;99407.72;6355148;27;20086;-75
2024/03/02 04:12:55;;;;;;;19.00;9.25;;;;;;;12.08;90.26;99404.84;6373138;27;20051;-75
2024/03/02 04:15:56;;;;;;;18.63;8.98;;;;;;;12.03;88.55;99401.78;6373262;27;20055;-75
2024/03/02 04:18:57;;;;;;;17.77;9.10;;;;;;;12.07;88.35;99403.22;6372651;27;20051;-70
2024/03/02 04:21:58;;;;;;;19.48;9.32;;;;;;;11.95;88.78;99404.97;6381951;27;20055;-70
2024/03/02 04:25:00;;;;;;;21.23;9.45;;;;;;;11.93;89.26;99404.25;6358186;27;20047;-70
2024/03/02 04:28:00;;;;;;;15.25;7.95;;;;;;;11.89;88.98;99408.06;6354740;28;20051;-70
2024/03/02 04:31:03;;;;;;;13.55;7.50;;;;;;;11.86;87.72;99408.25;6354523;28;20131;-70
2024/03/02 04:34:04;;;;;;;14.43;7.88;;;;;;;11.81;88.77;99402.56;6372887;28;20500;-70
2024/03/02 04:37:05;;;;;;;16.98;7.35;;;;;;;11.77;89.16;99403.75;6373340;27;20074;-71
2024/03/02 04:40:09;;;;;;;17.88;7.55;;;;;;;11.83;89.47;99414.56;6358490;27;20129;-70
2024/03/02 04:43:10;;;;;;;16.45;7.85;;;;;;;11.75;90.92;99405.63;6371531;27;20058;-70
2024/03/02 04:46:11;;;;;;;16.70;8.15;;;;;;;11.72;92.27;99403.28;6380184;27;20462;-75
2024/03/02 04:49:12;;;;;;;15.77;8.30;;;;;;;11.74;92.89;99412.66;6362662;28;20051;-75
2024/03/02 04:52:12;;;;;;;19.52;10.05;;;;;;;11.60;93.45;99410.25;6354298;28;20058;-70
2024/03/02 04:58:17;;;;;;;14.73;8.02;;;;;;;11.56;94.67;99422.72;6374630;27;20043;-70
2024/03/02 05:01:17;;;;;;;15.98;8.20;;;;;;;11.51;95.08;99417.00;6379768;27;20443;-71
2024/03/02 05:04:18;;;;;;;13.77;7.70;;;;;;;11.56;95.27;99414.03;6389429;27;20508;-75
2024/03/02 05:07:22;;;;;;;14.75;7.70;;;;;;;11.47;95.58;99421.63;6376742;27;20057;-75
2024/03/02 05:10:24;;;;;;;13.27;7.03;;;;;;;11.45;95.30;99414.84;6379595;27;20543;-75
2024/03/02 05:13:24;;;;;;;12.85;7.10;;;;;;;11.50;95.50;99418.75;6379871;27;20104;-75
2024/03/02 05:16:28;;;;;;;13.77;7.55;;;;;;;11.39;96.11;99410.91;6372451;28;20051;-75
2024/03/02 05:19:31;;;;;;;12.93;7.28;;;;;;;11.34;96.07;99420.84;6353919;28;20158;-76
2024/03/02 05:22:33;;;;;;;13.00;7.10;;;;;;;11.39;96.32;99423.97;6354057;28;20080;-76
2024/03/02 05:25:35;;;;;;;;;;;;;;;11.48;95.79;99431.09;6372504;28;20513;-75
2024/03/02 05:28:39;;;;;;;12.70;6.53;;;;;;;11.43;95.77;99430.63;6374667;27;20447;-75
2024/03/02 05:31:40;;;;;;;12.80;7.45;;;;;;;11.45;95.86;99433.97;6363974;27;20054;-75
2024/03/02 05:34:41;;;;;;;14.57;7.37;;;;;;;11.37;96.24;99433.69;6374569;27;20051;-75
2024/03/02 05:37:41;;;;;;;15.90;8.45;;;;;;;11.41;96.48;99423.88;6374745;27;20496;-75
2024/03/02 05:40:43;;;;;;;16.77;7.32;;;;;;;11.39;96.56;99429.19;6381628;27;20107;-75
2024/03/02 05:43:43;;;;;;;15.68;8.45;;;;;;;11.36;96.67;99434.63;6383939;27;20051;-75
2024/03/02 05:46:46;;;;;;;13.02;8.30;;;;;;;11.46;97.09;99434.78;6384209;27;20479;-75
2024/03/02 05:49:47;;;;;;;15.88;8.40;;;;;;;11.44;96.46;99441.91;6402037;27;20473;-75
2024/03/02 05:52:48;;;;;;;14.60;8.10;;;;;;;11.48;96.17;99446.78;6361054;27;20078;-75
2024/03/02 05:55:53;;;;;;;12.27;8.38;;;;;;;11.50;96.22;99455.34;6376140;27;20490;-75
2024/03/02 06:02:13;;;;;;;16.55;8.57;;;;;;;11.58;96.90;99467.03;6383234;27;20086;-75
2024/03/02 06:05:17;;;;;;;19.40;8.90;;;;;;;11.54;97.27;99468.19;6402025;27;20478;-75
2024/03/02 06:08:18;;;;;;;19.10;8.73;;;;;;;11.64;98.14;99487.47;6376830;27;20482;-76
2024/03/02 06:11:22;;;;;;;20.85;9.45;;;;;;;11.67;98.38;99488.06;6364177;27;20058;-76
2024/03/02 06:14:23;;;;;;;18.83;9.57;;;;;;;11.73;98.51;99485.94;6394434;27;20129;-76
2024/03/02 06:17:23;;;;;;;17.38;9.18;;;;;;;11.63;98.97;99484.03;6393073;27;20053;-76
2024/03/02 06:20:26;;;;;;;15.68;9.00;;;;;;;11.54;99.41;99492.53;6385535;27;20050;-76
2024/03/02 06:23:27;;;;;;;22.83;8.30;;;;;;;11.44;99.23;99496.78;6399527;27;20049;-76
2024/03/02 06:38:52;;;;;;;16.20;8.27;;;;;;;11.72;96.35;99513.88;6332822;27;20392;-76
2024/03/02 06:41:53;;;;;;;21.10;8.70;;;;;;;11.72;96.69;99511.25;6334242;28;20051;-76
2024/03/02 06:44:54;;;;;;;19.40;8.25;;;;;;;11.75;96.46;99520.63;6340464;28;20483;-70
2024/03/02 06:47:57;;;;;;;13.75;7.70;;;;;;;11.79;95.88;99522.91;6330950;28;20040;-71
2024/03/02 06:50:58;;;;;;;16.42;7.82;;;;;;;11.77;97.35;99527.41;6316823;28;20143;-70
2024/03/02 06:53:59;;;;;;;17.00;8.05;;;;;;;11.75;96.56;99529.28;6313277;28;20057;-76
2024/03/02 06:57:00;;;;;;;14.50;7.50;;;;;;;11.80;97.52;99529.81;6308201;28;20054;-70
2024/03/02 07:00:01;;;;;;;17.33;7.55;;;;;;;11.86;97.95;99544.19;6343420;28;20486;-76
2024/03/02 07:03:02;;;;;;;13.95;7.68;;;;;;;11.92;97.72;99532.47;6342720;28;20406;-71
2024/03/02 07:06:03;;;;;;;16.70;8.40;;;;;;;11.94;98.28;99541.84;6342707;28;20052;-70
2024/03/02 07:09:04;;;;;;;14.50;7.82;;;;;;;11.97;97.96;99544.25;6324598;28;20126;-70
2024/03/02 07:12:07;;;;;;;15.93;7.95;;;;;;;11.99;98.07;99546.75;6316039;28;20495;-70
2024/03/02 07:15:28;;;;;;;13.35;6.78;;;;;;;11.98;96.84;99550.31;6317290;28;20488;-70
2024/03/02 07:18:33;;;;;;;14.27;7.40;;;;;;;12.07;96.96;99555.69;6322563;28;20048;-70
2024/03/02 07:21:34;;;;;;;17.17;8.02;;;;;;;12.16;97.08;99561.19;6316009;28;20652;-70
2024/03/02 07:24:41;;;;;;;16.40;8.38;;;;;;;12.30;97.31;99568.81;6320697;28;20048;-70
2024/03/02 07:27:43;;;;;;;14.05;7.85;;;;;;;12.26;96.98;99560.38;6329272;28;20049;-70
2024/03/02 07:30:44;;;;;;;15.57;8.35;;;;;;;12.40;97.42;99572.41;6329872;28;20059;-70
2024/03/02 07:33:46;;;;;;;16.52;6.93;;;;;;;12.16;98.00;99567.25;6329300;28;20392;-70
2024/03/02 07:36:47;;;;;;;15.13;7.15;;;;;;;12.32;98.14;99579.19;6337110;28;20047;-70
2024/03/02 07:39:47;;;;;;;19.98;7.57;;;;;;;12.49;97.65;99587.38;6314852;28;20059;-71
2024/03/02 07:42:48;;;;;;;20.30;8.95;;;;;;;12.46;98.72;99586.81;6317373;28;20066;-71
2024/03/02 07:45:49;;;;;;;13.40;8.05;;;;;;;12.30;98.84;99587.97;6312907;28;20051;-70
2024/03/02 07:48:51;;;;;;;15.93;8.48;;;;;;;12.43;99.74;99587.84;6316500;28;20412;-70
2024/03/02 07:51:55;;;;;;;;;;;;;;;12.40;98.74;99592.50;6285818;28;20503;-75
2024/03/02 07:54:56;;;;;;;13.90;7.57;;;;;;;12.38;98.71;99595.22;6313586;28;19955;-75
2024/03/02 07:57:57;;;;;;;15.02;8.23;;;;;;;12.42;98.61;99595.84;6296874;28;20048;-75
2024/03/02 08:01:00;;;;;;;12.05;7.90;;;;;;;12.45;99.73;99587.75;6298625;28;20569;-75
2024/03/02 08:04:03;;;;;;;21.98;9.77;;;;;;;12.60;99.04;99583.97;6297481;28;20113;-75
2024/03/02 08:07:05;;;;;;;17.52;10.02;;;;;;;12.73;99.25;99585.66;6298616;28;20103;-76
2024/03/02 08:10:06;;;;;;;25.52;9.48;;;;;;;12.57;100.00;99575.50;6297420;28;20143;-76
2024/03/02 08:13:07;;;;;;;16.50;8.90;;;;;;;12.77;100.00;99579.22;6299090;28;20465;-75
2024/03/02 08:16:09;;;;;;;20.15;9.25;;;;;;;12.79;100.00;99580.75;6299084;28;20084;-75
2024/03/02 08:19:10;;;;;;;19.25;10.02;;;;;;;12.92;100.00;99580.63;6297860;28;20048;-75
2024/03/02 08:22:11;;;;;;;18.20;10.43;;;;;;;12.98;98.29;99568.84;6297793;28;20106;-75
2024/03/02 08:25:12;;;;;;;17.92;9.88;;;;;;;12.76;96.88;99567.06;6297857;28;20048;-75
2024/03/02 08:28:13;;;;;;;18.17;9.02;;;;;;;12.83;97.27;99570.88;6297539;28;20095;-70
2024/03/02 08:31:14;;;;;;;20.60;9.65;;;;;;;13.07;96.88;99558.47;6297511;28;20411;-70
2024/03/02 08:34:15;;;;;;;20.40;9.30;;;;;;;13.17;96.59;99570.84;6297410;28;20515;-70
2024/03/02 08:37:16;;;;;;;17.25;7.72;;;;;;;13.29;93.87;99562.84;6298293;28;20457;-70
2024/03/02 08:40:19;;;;;;;11.73;6.82;;;;;;;13.34;93.31;99559.84;6298425;28;20385;-70
2024/03/02 08:43:20;;;;;;;12.20;6.70;;;;;;;13.29;93.51;99562.84;6298447;28;20411;-70
2024/03/02 08:46:23;;;;;;;14.38;8.23;;;;;;;13.40;94.18;99558.53;6298299;28;20048;-69
2024/03/02 08:49:24;;;;;;;14.13;7.38;;;;;;;13.10;93.42;99555.59;6297116;28;20139;-69
2024/03/02 08:52:24;;;;;;;12.05;6.30;;;;;;;13.30;92.47;99554.06;6298321;28;20397;-70
2024/03/02 08:55:25;;;;;;;14.55;6.10;;;;;;;13.09;94.67;99551.34;6298024;28;20050;-70
2024/03/02 08:58:26;;;;;;;9.45;5.78;;;;;;;12.75;95.58;99560.19;6298069;28;20044;-69
2024/03/02 09:01:27;;;;;;;11.93;6.88;;;;;;;13.16;95.84;99569.16;6296714;28;20052;-69
2024/03/02 09:04:29;;;;;;;11.40;6.22;;;;;;;13.08;95.63;99573.22;6298065;28;20052;-69
2024/03/02 09:07:32;;;;;;;11.80;6.90;;;;;;;13.41;94.35;99570.69;6296491;28;20093;-69
2024/03/02 09:10:33;;;;;;;15.73;7.10;;;;;;;13.06;94.48;99562.03;6296371;28;20492;-69
2024/03/02 09:13:34;;;;;;;20.08;7.22;;;;;;;13.35;94.46;99572.03;6296382;28;20048;-69
2024/03/02 09:16:34;;;;;;;19.00;7.68;;;;;;;13.64;93.38;99574.06;6297402;28;20047;-70
2024/03/02 09:19:35;;;;;;;16.25;8.38;;;;;;;13.50;93.20;99585.66;6296348;28;20044;-69
2024/03/02 09:22:36;;;;;;;25.50;10.98;;;;;;;13.52;92.94;99590.78;6297307;28;20131;-69
2024/03/02 09:25:37;;;;;;;17.67;8.70;;;;;;;13.83;91.11;99589.97;6296264;28;20049;-69
2024/03/02 09:28:38;;;;;;;16.27;8.10;;;;;;;13.61;92.67;99596.13;6297066;28;20052;-69
2024/03/02 09:31:41;;;;;;;13.23;8.45;;;;;;;14.00;92.12;99599.09;6297547;28;20052;-69
2024/03/02 09:34:44;;;;;;;13.18;8.05;;;;;;;13.74;89.55;99597.75;6297063;28;20102;-69
2024/03/02 09:37:45;;;;;;;11.77;6.88;;;;;;;13.92;89.42;99614.63;6296778;28;20044;-69
2024/03/02 09:40:49;;;;;;;12.35;6.72;;;;;;;13.92;90.47;99609.38;6295892;28;20389;-69
2024/03/02 09:43:50;;;;;;;10.38;5.90;;;;;;;14.08;89.41;99601.91;6295954;28;20484;-69
2024/03/02 09:46:52;;;;;;;10.95;6.50;;;;;;;13.99;89.74;99599.19;6296955;28;20052;-70
2024/03/02 09:49:53;;;;;;;9.57;5.90;;;;;;;13.88;90.98;99594.84;6295545;28;20130;-71
2024/03/02 09:52:54;;;;;;;12.18;5.82;;;;;;;14.09;89.01;99584.38;6295676;28;20091;-71
2024/03/02 09:55:55;;;;;;;12.10;5.15;;;;;;;13.35;90.45;99582.50;6295353;28;20048;-69
2024/03/02 09:58:56;;;;;;;9.40;4.97;;;;;;;13.87;91.91;99574.81;6295581;28;20132;-69
2024/03/02 10:02:00;;;;;;;9.48;4.88;;;;;;;13.55;91.58;99578.28;6296265;28;20056;-70
2024/03/02 10:05:03;;;;;;;12.95;4.90;;;;;;;13.90;91.29;99577.19;6295338;28;20182;-70
2024/03/02 10:08:06;;;;;;;8.95;4.65;;;;;;;13.71;91.01;99583.09;6296553;28;20057;-71
2024/03/02 10:11:07;;;;;;;7.35;4.38;;;;;;;14.05;89.96;99585.59;6295278;28;20496;-70
2024/03/02 10:14:12;;;;;;;11.35;5.35;;;;;;;13.82;90.54;99584.88;6295243;28;20052;-69
2024/03/02 10:17:15;;;;;;;8.38;4.97;;;;;;;14.07;89.60;99579.25;6295154;28;20048;-70
2024/03/02 10:20:28;;;;;;;8.30;4.30;;;;;;;14.06;88.28;99588.09;6295312;28;20059;-70
2024/03/02 10:23:29;;;;;;;11.45;5.05;;;;;;;14.41;87.57;99584.31;6296305;28;20048;-69
2024/03/02 10:26:30;;;;;;;9.65;4.97;;;;;;;14.32;88.58;99591.13;6296236;28;20479;-69
2024/03/02 10:29:31;;;;;;;8.23;4.55;;;;;;;14.55;86.85;99585.75;6295027;28;20482;-69
2024/03/02 10:32:32;;;;;;;8.23;3.95;;;;;;;14.41;85.72;99581.69;6295302;28;20105;-70
2024/03/02 10:35:36;;;;;;;6.97;4.28;;;;;;;14.96;84.20;99575.31;6294954;28;20045;-69
2024/03/02 10:38:37;;;;;;;9.85;5.10;;;;;;;14.96;83.61;99589.25;6296054;28;20110;-70
2024/03/02 10:41:39;;;;;;;6.43;4.35;;;;;;;14.55;84.25;99577.88;6294864;28;20139;-69
2024/03/02 10:44:41;;;;;;;7.20;4.53;;;;;;;15.17;83.24;99567.34;6294930;28;20106;-69
2024/03/02 10:47:46;;;;;;;9.73;5.13;;;;;;;15.44;83.68;99566.69;6296148;28;20056;-70
2024/03/02 10:50:47;;;;;;;8.40;4.10;;;;;;;15.49;79.89;99565.31;6294996;28;20055;-69
2024/03/02 10:53:48;;;;;;;10.13;3.85;;;;;;;14.99;82.02;99559.25;6296137;28;20060;-69
2024/03/02 10:56:49;;;;;;;7.25;4.22;;;;;;;15.57;81.77;99559.38;6294552;28;20467;-70
2024/03/02 11:00:00;;;;;;;9.73;3.97;;;;;;;15.83;80.08;99572.81;6294714;28;20052;-69
2024/03/02 11:03:08;;;;;;;6.63;4.22;;;;;;;16.20;78.57;99571.25;6294575;28;20127;-70
2024/03/02 11:06:14;;;;;;;8.85;3.80;;;;;;;15.73;78.08;99566.75;6295834;28;20499;-69
2024/03/02 11:09:20;;;;;;;8.00;4.10;;;;;;;16.22;76.11;99569.31;6295727;28;20059;-69
2024/03/02 11:12:34;;;;;;;7.20;3.92;;;;;;;16.36;76.62;99573.31;6294802;28;20055;-70
2024/03/02 11:15:37;;;;;;;5.03;3.30;;;;;;;16.46;73.89;99561.78;6300412;28;20519;-75
2024/03/02 11:18:42;;;;;;;7.85;3.60;;;;;;;15.85;74.86;99562.16;6300440;28;20053;-75
2024/03/02 11:21:44;;;;;;;4.38;2.95;;;;;;;15.96;73.31;99563.81;6300076;28;20056;-75
2024/03/02 11:24:52;;;;;;;6.15;3.50;;;;;;;16.28;71.50;99563.50;6300462;28;20052;-75
2024/03/02 11:27:53;;;;;;;4.65;2.85;;;;;;;16.10;71.66;99564.22;6298901;28;20049;-75
2024/03/02 11:30:54;;;;;;;7.28;3.67;;;;;;;16.59;71.18;99560.63;6298899;28;20056;-75
2024/03/02 11:33:55;;;;;;;9.77;3.35;;;;;;;16.69;70.10;99571.97;6299960;28;20139;-75
2024/03/02 11:36:55;;;;;;;7.32;3.35;;;;;;;15.57;71.30;99561.19;6299838;28;20056;-75
2024/03/02 11:39:56;;;;;;;5.97;3.20;;;;;;;15.21;73.92;99564.28;6299787;28;20128;-75
2024/03/02 11:42:59;;;;;;;5.45;3.15;;;;;;;15.38;74.71;99559.34;6298548;28;20052;-75
2024/03/02 11:46:06;;;;;;;5.25;3.10;;;;;;;15.69;73.96;99560.09;6298516;28;20511;-75
2024/03/02 11:49:09;;;;;;;5.13;2.88;;;;;;;15.73;74.13;99566.75;6298803;28;20056;-75
2024/03/02 11:52:11;;;;;;;5.57;3.17;;;;;;;15.71;74.57;99558.97;6299481;28;20436;-75
2024/03/02 11:55:12;;;;;;;5.00;2.78;;;;;;;15.76;74.80;99563.84;6298262;28;20044;-75
2024/03/02 11:58:14;;;;;;;7.78;3.05;;;;;;;15.94;73.12;99565.75;6298348;28;20076;-75
2024/03/02 12:01:15;;;;;;;4.07;2.83;;;;;;;16.00;71.28;99567.81;6299302;28;20048;-70
2024/03/02 12:04:16;;;;;;;3.73;2.50;;;;;;;15.91;73.34;99566.88;6298198;28;20057;-70
2024/03/02 12:07:22;;;;;;;8.70;3.42;;;;;;;15.37;73.97;99549.81;6299334;28;20036;-70
2024/03/02 12:10:23;;;;;;;6.88;2.83;;;;;;;15.61;73.48;99565.19;6299098;28;20067;-70
2024/03/02 12:13:26;;;;;;;4.40;2.60;;;;;;;15.64;72.82;99554.41;6298005;28;20044;-70
2024/03/02 12:16:27;;;;;;;4.13;2.65;;;;;;;15.97;73.74;99563.69;6297975;28;20476;-70
2024/03/02 12:19:29;;;;;;;4.25;2.90;;;;;;;15.97;73.32;99566.31;6298970;28;20062;-70
2024/03/02 12:22:30;;;;;;;6.10;3.03;;;;;;;16.11;72.39;99559.78;6297676;28;20044;-70
2024/03/02 12:25:35;;;;;;;6.90;3.00;;;;;;;16.21;71.22;99555.34;6297649;28;20094;-70
2024/03/02 12:28:36;;;;;;;4.97;2.67;;;;;;;16.29;70.72;99555.47;6298741;28;20443;-70
2024/03/02 12:31:39;;;;;;;7.37;3.50;;;;;;;16.50;69.98;99557.06;6298778;28;20488;-70
2024/03/02 12:34:46;;;;;;;5.07;2.90;;;;;;;16.45;68.81;99552.25;6297295;28;20409;-70
2024/03/02 12:37:48;;;;;;;6.38;3.30;;;;;;;16.18;70.26;99549.53;6298223;28;20531;-70
2024/03/02 12:40:49;;;;;;;;;;;;;;;16.38;71.77;99545.88;6298807;28;20048;-70
2024/03/02 12:43:50;;;;;;;6.28;3.20;;;;;;;16.21;71.45;99549.25;6297380;28;20398;-70
2024/03/02 12:46:51;;;;;;;6.57;2.88;;;;;;;16.49;71.56;99552.75;6297039;28;20049;-70
2024/03/02 12:49:52;;;;;;;6.32;3.03;;;;;;;16.52;71.02;99542.78;6298435;28;20055;-70
2024/03/02 12:52:54;;;;;;;7.60;2.95;;;;;;;16.49;69.44;99544.84;6297962;28;20044;-75
2024/03/02 12:55:56;;;;;;;6.20;3.20;;;;;;;16.74;68.70;99551.31;6298152;28;20059;-75
2024/03/02 12:59:00;;;;;;;5.28;3.20;;;;;;;17.12;65.05;99536.28;6297963;28;20059;-74
2024/03/02 13:02:01;;;;;;;4.72;3.13;;;;;;;16.91;65.68;99539.19;6296607;28;20530;-75
2024/03/02 13:05:03;;;;;;;4.22;2.75;;;;;;;17.15;66.06;99543.06;6296603;28;20614;-75
2024/03/02 13:08:06;;;;;;;5.10;3.20;;;;;;;17.16;66.61;99535.00;6296521;28;20048;-75
2024/03/02 13:11:07;;;;;;;5.65;3.33;;;;;;;17.43;65.74;99538.56;6297571;28;20053;-75
2024/03/02 13:14:10;;;;;;;5.55;3.10;;;;;;;17.42;63.70;99535.13;6296346;28;20415;-75
2024/03/02 13:17:14;;;;;;;4.20;2.40;;;;;;;17.48;64.66;99528.38;6296428;28;20047;-75
2024/03/02 13:20:15;;;;;;;5.60;3.17;;;;;;;17.31;62.80;99525.59;6297390;28;20496;-75
2024/03/02 13:23:15;;;;;;;6.82;3.20;;;;;;;17.38;63.23;99527.63;6296402;28;20109;-75
2024/03/02 13:26:16;;;;;;;39.60;5.95;;;;;;;17.47;65.01;99521.47;6297315;28;20381;-75
2024/03/02 13:29:20;;;;;;;5.75;2.47;;;;;;;17.40;64.21;99525.66;6296103;28;20060;-75
2024/03/02 13:32:23;;;;;;;5.20;3.00;;;;;;;17.39;62.78;99514.31;6297102;28;20131;-75
2024/03/02 13:35:24;;;;;;;7.25;3.30;;;;;;;17.32;64.90;99527.25;6295567;28;20055;-74
2024/03/02 13:38:27;;;;;;;8.13;3.58;;;;;;;17.64;63.99;99517.97;6295596;28;20057;-74
2024/03/02 13:41:28;;;;;;;11.20;5.05;;;;;;;16.80;64.37;99524.38;6296929;28;20473;-74
2024/03/02 13:44:30;;;;;;;10.93;6.13;;;;;;;16.99;63.77;99525.28;6295799;28;20538;-74
2024/03/02 13:47:31;;;;;;;7.03;3.28;;;;;;;16.62;66.17;99529.56;6296902;28;20683;-74
2024/03/02 13:50:32;;;;;;;8.67;3.97;;;;;;;16.48;65.52;99536.13;6297065;28;20048;-75
2024/03/02 13:53:35;;;;;;;20.42;7.85;;;;;;;16.76;66.11;99528.28;6296722;28;20052;-75
2024/03/02 13:56:35;;;;;;;12.85;5.47;;;;;;;16.43;65.24;99530.50;6295749;28;20079;-75
2024/03/02 13:59:38;;;;;;;6.78;3.58;;;;;;;16.39;66.69;99523.00;6295446;28;20045;-74
2024/03/02 14:02:39;;;;;;;8.07;3.33;;;;;;;16.44;66.22;99526.03;6296761;28;20137;-74
2024/03/02 14:05:40;;;;;;;4.13;2.83;;;;;;;16.25;68.20;99527.75;6295492;28;20056;-75
2024/03/02 14:08:44;;;;;;;5.85;3.10;;;;;;;16.19;67.16;99525.69;6295373;28;20044;-74
2024/03/02 14:11:45;;;;;;;11.48;3.70;;;;;;;15.69;67.90;99524.09;6295453;28;20411;-74
2024/03/02 14:14:46;;;;;;;6.03;3.15;;;;;;;15.81;68.19;99534.47;6296419;28;20059;-74
2024/03/02 14:17:50;;;;;;;6.75;3.47;;;;;;;15.86;68.92;99527.00;6295311;28;20049;-74
2024/03/02 14:20:52;;;;;;;6.32;3.75;;;;;;;15.73;68.79;99535.19;6295214;28;20056;-74
2024/03/02 14:23:53;;;;;;;12.98;5.68;;;;;;;15.69;69.58;99534.59;6296429;28;20052;-74
2024/03/02 14:26:54;;;;;;;7.38;3.60;;;;;;;15.52;70.83;99528.25;6296270;28;20110;-75